Time;durP1;ratioP1;P1;durP2;ratioP2;P2;SDS_P1;SDS_P2;PMS_P1;PMS_P2;Temp;Humidity;BMP_temperature;BMP_pressure;BME280_temperature;BME280_humidity;BME280_pressure;Samples;Min_cycle;Max_cycle;Signal;HPM_P1;HPM_P2
2023/12/12 00:00:29;;;;;;;0.80;0.80;;;5.70;99.90;;;;;;5039626;28;20182;-87
2023/12/12 00:02:58;;;;;;;0.73;0.73;;;6.40;99.90;;;;;;5039802;28;20164;-88
2023/12/12 00:05:24;;;;;;;0.70;0.70;;;5.40;99.90;;;;;;5038933;28;20168;-86
2023/12/12 00:07:50;;;;;;;0.70;0.70;;;5.40;99.90;;;;;;5039264;28;20175;-83
2023/12/12 00:10:15;;;;;;;0.80;0.80;;;5.90;99.90;;;;;;5039827;28;20168;-85
2023/12/12 00:12:41;;;;;;;0.80;0.80;;;5.30;99.90;;;;;;5040069;28;20226;-85
2023/12/12 00:15:07;;;;;;;0.70;0.70;;;5.40;99.90;;;;;;5040112;28;20258;-88
2023/12/12 00:17:33;;;;;;;0.80;0.80;;;5.50;99.90;;;;;;5039168;28;20705;-88
2023/12/12 00:19:58;;;;;;;0.80;0.80;;;5.60;99.90;;;;;;5039841;28;20198;-86
2023/12/12 00:22:24;;;;;;;0.70;0.70;;;5.60;99.90;;;;;;5039209;28;20168;-88
2023/12/12 00:24:49;;;;;;;0.80;0.80;;;5.50;99.90;;;;;;5021425;28;20680;-85
2023/12/12 00:27:15;;;;;;;0.80;0.80;;;5.30;99.90;;;;;;5039527;28;20562;-84
2023/12/12 00:29:40;;;;;;;0.80;0.80;;;5.20;99.90;;;;;;5039375;28;20725;-85
2023/12/12 00:32:07;;;;;;;0.70;0.70;;;5.20;99.90;;;;;;5038396;28;20218;-87
2023/12/12 00:34:36;;;;;;;0.70;0.70;;;5.30;99.90;;;;;;5039278;28;20816;-87
2023/12/12 00:37:02;;;;;;;0.80;0.80;;;5.30;99.90;;;;;;5039428;28;20216;-87
2023/12/12 00:39:28;;;;;;;0.77;0.77;;;5.20;99.90;;;;;;5039754;28;20179;-86
2023/12/12 00:41:53;;;;;;;0.70;0.70;;;5.20;99.90;;;;;;5038164;28;20176;-86
2023/12/12 00:44:19;;;;;;;0.70;0.70;;;5.20;99.90;;;;;;5038609;28;20178;-87
2023/12/12 00:46:44;;;;;;;0.80;0.80;;;5.20;99.90;;;;;;5039410;28;20677;-85
2023/12/12 00:49:10;;;;;;;0.70;0.70;;;5.20;99.90;;;;;;5039873;28;20243;-85
2023/12/12 00:51:35;;;;;;;0.70;0.70;;;5.10;99.90;;;;;;5039016;28;20172;-86
2023/12/12 00:54:01;;;;;;;0.70;0.70;;;5.00;99.90;;;;;;5039401;28;20168;-88
2023/12/12 00:56:26;;;;;;;0.80;0.80;;;5.10;99.90;;;;;;5039093;28;20218;-85
2023/12/12 00:58:52;;;;;;;0.70;0.70;;;5.40;99.90;;;;;;5039286;28;20291;-85
2023/12/12 01:01:18;;;;;;;0.70;0.70;;;5.20;99.90;;;;;;5038074;28;20184;-86
2023/12/12 01:03:43;;;;;;;0.70;0.70;;;5.30;99.90;;;;;;5040132;28;20693;-86
2023/12/12 01:06:20;;;;;;;0.80;0.80;;;5.30;99.90;;;;;;5039419;28;20192;-87
2023/12/12 01:08:45;;;;;;;0.90;0.90;;;5.40;99.90;;;;;;5040035;28;20270;-86
2023/12/12 01:11:11;;;;;;;0.80;0.80;;;5.30;99.90;;;;;;5039760;28;20654;-86
2023/12/12 01:13:36;;;;;;;0.80;0.80;;;5.30;99.90;;;;;;5038645;28;20176;-86
2023/12/12 01:16:02;;;;;;;0.70;0.70;;;5.20;99.90;;;;;;5038911;28;20211;-86
2023/12/12 01:18:27;;;;;;;0.80;0.80;;;5.20;99.90;;;;;;5039546;28;20618;-86
2023/12/12 01:20:53;;;;;;;0.80;0.80;;;5.30;99.90;;;;;;5044897;28;20183;-87
2023/12/12 01:23:19;;;;;;;0.70;0.70;;;5.30;99.90;;;;;;5028399;28;20187;-85
2023/12/12 01:25:45;;;;;;;0.70;0.70;;;5.40;99.90;;;;;;5050401;28;20219;-85
2023/12/12 01:28:11;;;;;;;0.80;0.80;;;5.40;99.90;;;;;;5053875;28;20171;-86
2023/12/12 01:30:37;;;;;;;0.80;0.80;;;5.40;99.90;;;;;;5037007;28;20180;-86
2023/12/12 01:33:02;;;;;;;0.80;0.80;;;5.30;99.90;;;;;;5053967;28;20182;-87
2023/12/12 01:35:28;;;;;;;0.70;0.70;;;5.30;99.90;;;;;;5055230;28;20179;-85
2023/12/12 01:37:53;;;;;;;0.67;0.67;;;5.50;99.90;;;;;;5037291;28;20208;-85
2023/12/12 01:40:19;;;;;;;0.70;0.70;;;5.50;99.90;;;;;;5055627;28;20180;-86
2023/12/12 01:42:44;;;;;;;0.80;0.80;;;5.50;99.90;;;;;;5055354;28;20195;-85
2023/12/12 01:45:11;;;;;;;0.80;0.80;;;5.50;99.90;;;;;;5025010;28;20188;-86
2023/12/12 01:47:37;;;;;;;0.73;0.73;;;5.60;99.90;;;;;;5039267;28;20216;-85
2023/12/12 01:50:03;;;;;;;0.70;0.70;;;5.60;99.90;;;;;;5038947;28;20183;-85
2023/12/12 01:52:28;;;;;;;0.80;0.80;;;5.60;99.90;;;;;;5038025;28;20191;-86
2023/12/12 01:54:55;;;;;;;0.70;0.70;;;5.60;99.90;;;;;;5020501;28;20175;-85
2023/12/12 01:57:21;;;;;;;0.73;0.73;;;5.70;99.90;;;;;;5038967;28;20225;-84
2023/12/12 01:59:48;;;;;;;0.77;0.77;;;5.70;99.90;;;;;;5057643;28;20246;-87
2023/12/12 02:02:18;;;;;;;0.70;0.70;;;5.80;99.90;;;;;;5049026;28;20298;-86
2023/12/12 02:04:45;;;;;;;0.80;0.80;;;5.80;99.90;;;;;;5039627;28;20796;-85
2023/12/12 02:07:12;;;;;;;0.70;0.70;;;5.70;99.90;;;;;;5020890;28;20199;-85
2023/12/12 02:09:39;;;;;;;0.80;0.80;;;5.70;99.90;;;;;;5020749;28;20242;-86
2023/12/12 02:12:04;;;;;;;0.70;0.70;;;5.60;99.90;;;;;;5038517;28;20703;-85
2023/12/12 02:14:31;;;;;;;0.70;0.70;;;5.50;99.90;;;;;;5038536;28;20176;-85
2023/12/12 02:16:56;;;;;;;0.70;0.70;;;5.40;99.90;;;;;;5038895;28;20211;-86
2023/12/12 02:19:22;;;;;;;0.60;0.60;;;5.40;99.90;;;;;;5021386;28;20176;-86
2023/12/12 02:21:48;;;;;;;0.70;0.70;;;5.30;99.90;;;;;;5039107;28;20179;-85
2023/12/12 02:24:13;;;;;;;0.70;0.70;;;5.30;99.90;;;;;;5038346;28;20172;-85
2023/12/12 02:26:39;;;;;;;0.80;0.80;;;5.20;99.90;;;;;;5037357;28;20200;-85
2023/12/12 02:29:05;;;;;;;0.73;0.73;;;5.20;99.90;;;;;;5039156;28;20190;-85
2023/12/12 02:31:30;;;;;;;0.70;0.70;;;5.10;99.90;;;;;;5039142;28;20721;-86
2023/12/12 02:33:56;;;;;;;0.80;0.80;;;5.10;99.90;;;;;;5038363;28;20573;-87
2023/12/12 02:36:21;;;;;;;0.77;0.77;;;5.10;99.90;;;;;;5039929;28;20240;-85
2023/12/12 02:38:47;;;;;;;0.70;0.70;;;5.20;99.90;;;;;;5040098;28;20218;-86
2023/12/12 02:41:14;;;;;;;0.70;0.70;;;5.10;99.90;;;;;;5039101;28;20214;-85
2023/12/12 02:43:39;;;;;;;0.63;0.63;;;5.10;99.90;;;;;;5045994;28;20347;-85
2023/12/12 02:46:06;;;;;;;0.70;0.70;;;5.10;99.90;;;;;;5049209;28;20192;-86
2023/12/12 02:48:31;;;;;;;0.70;0.70;;;5.00;99.90;;;;;;5032425;28;20183;-87
2023/12/12 02:50:57;;;;;;;0.80;0.80;;;5.00;99.90;;;;;;5049116;28;20179;-85
2023/12/12 02:53:22;;;;;;;0.80;0.80;;;5.00;99.90;;;;;;5049776;28;20268;-85
2023/12/12 02:55:48;;;;;;;0.70;0.70;;;4.90;99.90;;;;;;5049496;28;20191;-85
2023/12/12 02:58:14;;;;;;;0.70;0.70;;;4.80;99.90;;;;;;5049039;28;20217;-86
2023/12/12 03:00:39;;;;;;;0.80;0.80;;;4.80;99.90;;;;;;5040922;28;20799;-84
2023/12/12 03:03:05;;;;;;;0.70;0.70;;;4.70;99.90;;;;;;5035573;28;20180;-85
2023/12/12 03:05:30;;;;;;;0.70;0.70;;;4.70;99.90;;;;;;5035195;28;20207;-86
2023/12/12 03:07:56;;;;;;;0.80;0.80;;;4.70;99.90;;;;;;5035710;28;20176;-85
2023/12/12 03:10:21;;;;;;;0.70;0.70;;;4.70;99.90;;;;;;5017317;28;20179;-85
2023/12/12 03:12:47;;;;;;;0.63;0.63;;;4.60;99.90;;;;;;5035295;28;20168;-85
2023/12/12 03:15:13;;;;;;;0.77;0.77;;;4.70;99.90;;;;;;5035127;28;20207;-84
2023/12/12 03:17:38;;;;;;;0.70;0.70;;;4.70;99.90;;;;;;5035176;28;20215;-84
2023/12/12 03:20:04;;;;;;;0.70;0.70;;;4.70;99.90;;;;;;5034725;28;20219;-85
2023/12/12 03:22:30;;;;;;;0.70;0.70;;;4.70;99.90;;;;;;5034755;28;20642;-84
2023/12/12 03:24:55;;;;;;;0.70;0.70;;;4.70;99.90;;;;;;5017280;28;20226;-84
2023/12/12 03:27:21;;;;;;;0.70;0.70;;;4.70;99.90;;;;;;5039397;28;20215;-88
2023/12/12 03:29:46;;;;;;;0.70;0.70;;;4.70;99.90;;;;;;5021089;28;20210;-85
2023/12/12 03:32:12;;;;;;;0.80;0.80;;;4.80;99.90;;;;;;5038598;28;20187;-85
2023/12/12 03:34:37;;;;;;;0.70;0.70;;;4.70;99.90;;;;;;5049612;28;20178;-86
2023/12/12 03:37:03;;;;;;;0.80;0.80;;;4.70;99.90;;;;;;5036500;28;20211;-88
2023/12/12 03:39:29;;;;;;;0.70;0.70;;;4.80;99.90;;;;;;5055675;28;20180;-86
2023/12/12 03:41:54;;;;;;;0.60;0.60;;;4.80;99.90;;;;;;5048940;28;20243;-85
2023/12/12 03:44:20;;;;;;;0.70;0.70;;;4.80;99.90;;;;;;5040146;28;20176;-85
2023/12/12 03:46:45;;;;;;;0.70;0.70;;;4.80;99.90;;;;;;5022626;28;20188;-85
2023/12/12 03:49:11;;;;;;;0.80;0.80;;;4.90;99.90;;;;;;5040807;28;20191;-85
2023/12/12 03:51:38;;;;;;;0.67;0.67;;;5.00;99.90;;;;;;5041399;28;20179;-85
2023/12/12 03:54:05;;;;;;;0.70;0.70;;;5.00;99.90;;;;;;5040825;28;20176;-85
2023/12/12 03:56:30;;;;;;;0.70;0.70;;;5.20;99.90;;;;;;5040161;28;20202;-86
2023/12/12 03:58:57;;;;;;;0.80;0.80;;;5.20;99.90;;;;;;5040671;28;20278;-85
2023/12/12 04:01:23;;;;;;;0.67;0.67;;;5.10;99.90;;;;;;5022082;28;20172;-86
2023/12/12 04:03:49;;;;;;;0.80;0.80;;;5.00;99.90;;;;;;5040359;28;20172;-85
2023/12/12 04:06:14;;;;;;;0.73;0.73;;;4.90;99.90;;;;;;5039711;28;20211;-85
2023/12/12 04:08:40;;;;;;;0.80;0.80;;;4.90;99.90;;;;;;5040070;28;20190;-85
2023/12/12 04:11:05;;;;;;;0.70;0.70;;;4.80;99.90;;;;;;5040370;28;20211;-85
2023/12/12 04:13:31;;;;;;;0.70;0.70;;;4.60;99.90;;;;;;5039911;28;20184;-86
2023/12/12 04:15:56;;;;;;;0.67;0.67;;;4.60;99.90;;;;;;5021706;28;20191;-85
2023/12/12 04:18:22;;;;;;;0.70;0.70;;;4.70;99.90;;;;;;5040174;28;20210;-85
2023/12/12 04:20:47;;;;;;;0.90;0.90;;;4.70;99.90;;;;;;5040026;28;20180;-85
2023/12/12 04:23:13;;;;;;;0.70;0.70;;;4.70;99.90;;;;;;5038860;28;20188;-86
2023/12/12 04:25:38;;;;;;;0.80;0.80;;;4.80;99.90;;;;;;5038389;28;20270;-85
2023/12/12 04:28:04;;;;;;;0.70;0.70;;;4.70;99.90;;;;;;5039063;28;20171;-85
2023/12/12 04:30:30;;;;;;;0.80;0.80;;;4.60;99.90;;;;;;5039259;28;20261;-85
2023/12/12 04:32:55;;;;;;;0.80;0.80;;;4.60;99.90;;;;;;5038928;28;20325;-84
2023/12/12 04:35:21;;;;;;;0.80;0.80;;;4.60;99.90;;;;;;5038763;28;20259;-84
2023/12/12 04:37:47;;;;;;;0.80;0.80;;;4.60;99.90;;;;;;5020312;28;20195;-85
2023/12/12 04:40:12;;;;;;;0.70;0.70;;;4.40;99.90;;;;;;5019999;28;20654;-85
2023/12/12 04:42:38;;;;;;;0.80;0.80;;;4.50;99.90;;;;;;5049721;28;20314;-89
2023/12/12 04:45:05;;;;;;;0.80;0.80;;;4.40;99.90;;;;;;5056967;28;20180;-87
2023/12/12 04:47:31;;;;;;;0.80;0.80;;;4.40;99.90;;;;;;5022352;28;20207;-85
2023/12/12 04:49:56;;;;;;;0.73;0.73;;;4.40;99.90;;;;;;5054630;28;20191;-86
2023/12/12 04:52:22;;;;;;;0.80;0.80;;;4.50;99.90;;;;;;5039769;28;20266;-86
2023/12/12 04:54:47;;;;;;;0.70;0.70;;;4.40;99.90;;;;;;5039669;28;20180;-87
2023/12/12 04:57:13;;;;;;;0.70;0.70;;;4.40;99.90;;;;;;5040284;28;20218;-88
2023/12/12 04:59:39;;;;;;;0.73;0.73;;;4.40;99.90;;;;;;5039142;28;20214;-86
2023/12/12 05:02:04;;;;;;;0.70;0.70;;;4.40;99.90;;;;;;5038981;28;20168;-86
2023/12/12 05:04:30;;;;;;;0.70;0.70;;;4.40;99.90;;;;;;5021336;28;20179;-86
2023/12/12 05:06:55;;;;;;;0.73;0.73;;;4.40;99.90;;;;;;5039031;28;20257;-87
2023/12/12 05:09:21;;;;;;;0.80;0.80;;;4.50;99.90;;;;;;5038914;28;20199;-85
2023/12/12 05:11:47;;;;;;;0.87;0.87;;;4.50;99.90;;;;;;5039177;28;20179;-86
2023/12/12 05:14:14;;;;;;;0.80;0.80;;;4.50;99.90;;;;;;5038832;28;20168;-85
2023/12/12 05:16:39;;;;;;;0.73;0.73;;;4.50;99.90;;;;;;5038928;28;20225;-85
2023/12/12 05:19:06;;;;;;;0.70;0.70;;;4.60;99.90;;;;;;5049847;28;20231;-83
2023/12/12 05:21:32;;;;;;;0.70;0.70;;;4.60;99.90;;;;;;5053266;28;20194;-86
2023/12/12 05:23:58;;;;;;;0.80;0.80;;;4.70;99.90;;;;;;5053846;28;20199;-84
2023/12/12 05:26:23;;;;;;;0.70;0.70;;;4.60;99.90;;;;;;5036261;28;20196;-85
2023/12/12 05:28:49;;;;;;;0.80;0.80;;;4.60;99.90;;;;;;5053830;28;20180;-89
2023/12/12 05:31:15;;;;;;;0.80;0.80;;;4.60;99.90;;;;;;5029470;28;20199;-86
2023/12/12 05:33:41;;;;;;;0.80;0.80;;;4.60;99.90;;;;;;5041933;28;20179;-86
2023/12/12 05:36:07;;;;;;;0.80;0.80;;;4.60;99.90;;;;;;5053147;28;20192;-91
2023/12/12 05:38:33;;;;;;;0.70;0.70;;;4.50;99.90;;;;;;5057826;28;20196;-92
2023/12/12 05:40:59;;;;;;;0.70;0.70;;;4.40;99.90;;;;;;5050824;28;20188;-87
2023/12/12 05:43:24;;;;;;;0.80;0.80;;;4.40;99.90;;;;;;5040119;28;20176;-87
2023/12/12 05:45:50;;;;;;;0.80;0.80;;;4.40;99.90;;;;;;5022027;28;20196;-87
2023/12/12 05:48:16;;;;;;;0.70;0.70;;;4.40;99.90;;;;;;5039720;28;20172;-86
2023/12/12 05:50:41;;;;;;;0.80;0.80;;;4.50;99.90;;;;;;5038711;28;20171;-86
2023/12/12 05:53:07;;;;;;;0.80;0.80;;;4.50;99.90;;;;;;5038756;28;20182;-87
2023/12/12 05:55:33;;;;;;;0.80;0.80;;;4.50;99.90;;;;;;5020837;28;20196;-87
2023/12/12 05:57:59;;;;;;;0.90;0.90;;;4.50;99.90;;;;;;5038241;28;20253;-86
2023/12/12 06:00:27;;;;;;;0.70;0.70;;;4.50;99.90;;;;;;5038411;28;20241;-88
2023/12/12 06:02:54;;;;;;;0.80;0.80;;;4.50;99.90;;;;;;5039291;28;20188;-86
2023/12/12 06:05:20;;;;;;;0.80;0.80;;;4.50;99.90;;;;;;5037228;28;20183;-85
2023/12/12 06:07:45;;;;;;;0.70;0.70;;;4.60;99.90;;;;;;5039781;28;20183;-85
2023/12/12 06:10:11;;;;;;;0.80;0.80;;;4.60;99.90;;;;;;5038000;28;20323;-86
2023/12/12 06:12:36;;;;;;;0.80;0.80;;;4.70;99.90;;;;;;5036668;28;20184;-85
2023/12/12 06:15:03;;;;;;;0.70;0.70;;;4.70;99.90;;;;;;5034784;28;20188;-87
2023/12/12 06:17:29;;;;;;;0.70;0.70;;;4.70;99.90;;;;;;5016648;28;20207;-87
2023/12/12 06:19:54;;;;;;;0.80;0.80;;;4.80;99.90;;;;;;5018558;28;20184;-87
2023/12/12 06:22:20;;;;;;;0.80;0.80;;;4.80;99.90;;;;;;5034921;28;20176;-85
2023/12/12 06:24:45;;;;;;;0.80;0.80;;;4.80;99.90;;;;;;5036101;28;20167;-85
2023/12/12 06:27:12;;;;;;;0.80;0.80;;;4.80;99.90;;;;;;5034525;28;20500;-87
2023/12/12 06:29:39;;;;;;;0.70;0.70;;;4.80;99.90;;;;;;5045016;28;20201;-86
2023/12/12 06:32:05;;;;;;;0.80;0.80;;;4.70;99.90;;;;;;5037530;28;20163;-88
2023/12/12 06:34:31;;;;;;;0.70;0.70;;;4.80;99.90;;;;;;5036869;28;20179;-88
2023/12/12 06:36:56;;;;;;;0.80;0.80;;;4.80;99.90;;;;;;5036428;28;20206;-87
2023/12/12 06:39:22;;;;;;;0.70;0.70;;;4.90;99.90;;;;;;5037095;28;20552;-86
2023/12/12 06:41:47;;;;;;;0.70;0.70;;;4.90;99.90;;;;;;5036740;28;20583;-86
2023/12/12 06:44:14;;;;;;;0.80;0.80;;;4.90;99.90;;;;;;5037044;28;20199;-86
2023/12/12 06:46:41;;;;;;;0.77;0.77;;;5.00;99.90;;;;;;5035947;28;20225;-87
2023/12/12 06:49:06;;;;;;;0.70;0.70;;;5.20;99.90;;;;;;5036236;28;20176;-86
2023/12/12 06:51:33;;;;;;;0.80;0.80;;;5.20;99.90;;;;;;5037080;28;20257;-86
2023/12/12 06:53:59;;;;;;;0.70;0.70;;;5.20;99.90;;;;;;5036796;28;20179;-88
2023/12/12 06:56:28;;;;;;;0.70;0.70;;;5.20;99.90;;;;;;5017076;28;20222;-90
2023/12/12 06:58:53;;;;;;;0.73;0.73;;;5.30;99.90;;;;;;5034480;28;20203;-85
2023/12/12 07:01:19;;;;;;;0.73;0.73;;;5.30;99.90;;;;;;5036217;28;20168;-85
2023/12/12 07:03:44;;;;;;;0.73;0.73;;;5.30;99.90;;;;;;5037926;28;20182;-86
2023/12/12 07:06:10;;;;;;;0.70;0.70;;;5.30;99.90;;;;;;5018346;28;20176;-87
2023/12/12 07:08:36;;;;;;;0.70;0.70;;;5.40;99.90;;;;;;5033104;28;20184;-88
2023/12/12 07:11:03;;;;;;;0.80;0.80;;;5.20;99.90;;;;;;5027114;28;20649;-86
2023/12/12 07:13:30;;;;;;;0.80;0.80;;;5.20;99.90;;;;;;5037939;28;20179;-86
2023/12/12 07:15:56;;;;;;;0.80;0.80;;;5.30;99.90;;;;;;5033322;28;20195;-88
2023/12/12 07:18:24;;;;;;;0.70;0.70;;;5.20;99.90;;;;;;5038396;28;20204;-87
2023/12/12 07:20:49;;;;;;;0.80;0.80;;;5.10;99.90;;;;;;5040483;28;20179;-85
2023/12/12 07:23:15;;;;;;;0.80;0.80;;;5.10;99.90;;;;;;5042491;28;20665;-86
2023/12/12 07:25:41;;;;;;;0.90;0.90;;;5.80;99.90;;;;;;5043905;28;20576;-87
2023/12/12 07:28:07;;;;;;;0.80;0.80;;;5.40;99.90;;;;;;5044381;28;20176;-85
2023/12/12 07:30:32;;;;;;;0.70;0.70;;;5.40;99.90;;;;;;5039477;28;20271;-89
2023/12/12 07:32:58;;;;;;;0.90;0.90;;;5.30;99.90;;;;;;5035588;28;20184;-86
2023/12/12 07:35:25;;;;;;;0.80;0.80;;;5.40;99.90;;;;;;5042850;28;20176;-86
2023/12/12 07:37:51;;;;;;;0.60;0.60;;;5.60;99.90;;;;;;5057960;28;20930;-86
2023/12/12 07:40:17;;;;;;;0.80;0.80;;;5.50;99.90;;;;;;5057349;28;20196;-85
2023/12/12 07:42:45;;;;;;;0.80;0.80;;;5.30;99.90;;;;;;5057468;28;20283;-86
2023/12/12 07:45:11;;;;;;;0.80;0.80;;;5.30;99.90;;;;;;5055056;28;20239;-86
2023/12/12 07:47:37;;;;;;;0.70;0.70;;;5.20;99.90;;;;;;5053857;28;20172;-87
2023/12/12 07:50:05;;;;;;;0.77;0.77;;;5.30;99.90;;;;;;5040587;28;20168;-87
2023/12/12 07:52:33;;;;;;;0.77;0.77;;;5.30;99.90;;;;;;5037639;28;20168;-87
2023/12/12 07:54:58;;;;;;;0.73;0.73;;;5.40;99.90;;;;;;5031023;28;20172;-86
2023/12/12 07:57:25;;;;;;;0.80;0.80;;;5.50;99.90;;;;;;5045615;28;20214;-87
2023/12/12 07:59:51;;;;;;;0.80;0.80;;;5.50;99.90;;;;;;5039642;28;20202;-86
2023/12/12 08:02:17;;;;;;;0.80;0.80;;;5.60;99.90;;;;;;5038304;28;20756;-85
2023/12/12 08:04:42;;;;;;;0.70;0.70;;;5.70;99.90;;;;;;5039638;28;20258;-86
2023/12/12 08:07:08;;;;;;;0.80;0.80;;;5.80;99.90;;;;;;5022526;28;20214;-85
2023/12/12 08:09:36;;;;;;;0.87;0.87;;;5.80;99.90;;;;;;5036849;28;20290;-86
2023/12/12 08:12:02;;;;;;;0.70;0.70;;;5.90;99.90;;;;;;5041114;28;20176;-86
2023/12/12 08:14:27;;;;;;;0.70;0.70;;;5.90;99.90;;;;;;5033584;28;20180;-87
2023/12/12 08:16:53;;;;;;;0.70;0.70;;;6.00;99.90;;;;;;5040454;28;20290;-84
2023/12/12 08:19:20;;;;;;;0.70;0.70;;;5.90;99.90;;;;;;5042372;28;20187;-86
2023/12/12 08:21:45;;;;;;;0.83;0.83;;;6.10;99.90;;;;;;5040557;28;20237;-83
2023/12/12 08:24:12;;;;;;;0.80;0.80;;;5.90;99.90;;;;;;5037405;28;20649;-87
2023/12/12 08:26:46;;;;;;;0.80;0.80;;;5.80;99.90;;;;;;5035788;28;20188;-88
2023/12/12 08:29:14;;;;;;;0.70;0.70;;;5.80;99.90;;;;;;5040242;28;20196;-88
2023/12/12 08:31:40;;;;;;;0.80;0.80;;;5.80;99.90;;;;;;5019135;28;20256;-86
2023/12/12 08:34:05;;;;;;;0.70;0.70;;;5.80;99.90;;;;;;5037680;28;20172;-87
2023/12/12 08:36:31;;;;;;;0.80;0.80;;;5.80;99.90;;;;;;5057629;28;20196;-86
2023/12/12 08:38:58;;;;;;;0.77;0.77;;;5.90;99.90;;;;;;5058080;28;20207;-85
2023/12/12 08:41:28;;;;;;;0.70;0.70;;;6.10;99.90;;;;;;5041093;28;20255;-85
2023/12/12 08:43:55;;;;;;;0.70;0.70;;;6.20;99.90;;;;;;5058137;28;20180;-85
2023/12/12 08:46:26;;;;;;;0.70;0.70;;;6.40;99.90;;;;;;5050338;28;20191;-87
2023/12/12 08:48:55;;;;;;;0.70;0.70;;;6.60;99.90;;;;;;5051690;28;20168;-86
2023/12/12 08:51:21;;;;;;;0.80;0.80;;;6.70;99.90;;;;;;5052253;28;20641;-86
2023/12/12 08:53:48;;;;;;;0.70;0.70;;;6.70;99.90;;;;;;5018455;28;20190;-87
2023/12/12 08:56:14;;;;;;;0.80;0.80;;;6.80;99.90;;;;;;5035656;28;20210;-87
2023/12/12 08:58:40;;;;;;;0.60;0.60;;;7.00;99.90;;;;;;5018118;28;20322;-87
2023/12/12 09:01:06;;;;;;;0.70;0.70;;;7.00;99.90;;;;;;5037949;28;20199;-85
2023/12/12 09:03:32;;;;;;;0.80;0.80;;;7.00;99.90;;;;;;5038383;28;20176;-87
2023/12/12 09:05:57;;;;;;;0.80;0.80;;;6.80;99.90;;;;;;5039230;28;20199;-86
2023/12/12 09:08:23;;;;;;;0.80;0.80;;;6.90;99.90;;;;;;5037961;28;20715;-86
2023/12/12 09:10:48;;;;;;;0.60;0.60;;;6.90;99.90;;;;;;5038228;28;20172;-87
2023/12/12 09:13:14;;;;;;;0.67;0.67;;;6.90;99.90;;;;;;5038898;28;20226;-87
2023/12/12 09:15:39;;;;;;;0.77;0.77;;;6.90;99.90;;;;;;5042556;28;20199;-86
2023/12/12 09:18:05;;;;;;;0.60;0.60;;;7.30;99.90;;;;;;5043891;28;20286;-86
2023/12/12 09:20:31;;;;;;;0.83;0.83;;;6.70;99.90;;;;;;5038751;28;20188;-87
2023/12/12 09:22:56;;;;;;;0.70;0.70;;;6.80;99.90;;;;;;5038478;28;20184;-85
2023/12/12 09:25:22;;;;;;;0.70;0.70;;;6.80;99.90;;;;;;5037281;28;20178;-85
2023/12/12 09:27:49;;;;;;;0.60;0.60;;;6.90;99.90;;;;;;5037955;28;20684;-86
2023/12/12 09:30:14;;;;;;;0.80;0.80;;;6.90;99.90;;;;;;5038574;28;20184;-83
2023/12/12 09:32:40;;;;;;;0.70;0.70;;;6.80;99.90;;;;;;5039198;28;20194;-85
2023/12/12 09:35:06;;;;;;;0.70;0.70;;;6.80;99.90;;;;;;5038168;28;20171;-87
2023/12/12 09:37:31;;;;;;;0.60;0.60;;;6.70;99.90;;;;;;5037020;28;20199;-86
2023/12/12 09:39:57;;;;;;;0.67;0.67;;;6.80;99.90;;;;;;5036994;28;20634;-84
2023/12/12 09:42:24;;;;;;;0.70;0.70;;;6.70;99.90;;;;;;5037641;28;20186;-83
2023/12/12 09:45:00;;;;;;;0.63;0.63;;;6.70;99.90;;;;;;5019306;28;20176;-84
2023/12/12 09:47:30;;;;;;;0.60;0.60;;;6.80;99.90;;;;;;5036951;28;20196;-85
2023/12/12 09:49:58;;;;;;;0.77;0.77;;;6.80;99.90;;;;;;5030668;28;20256;-84
2023/12/12 09:52:25;;;;;;;0.70;0.70;;;7.00;99.90;;;;;;5032003;28;20267;-82
2023/12/12 09:54:52;;;;;;;0.73;0.73;;;6.90;99.90;;;;;;5036088;28;20211;-84
2023/12/12 09:57:21;;;;;;;0.60;0.60;;;6.80;99.90;;;;;;5037782;28;20677;-84
2023/12/12 09:59:46;;;;;;;0.70;0.70;;;6.80;99.90;;;;;;5017775;28;20206;-85
2023/12/12 10:02:17;;;;;;;0.70;0.70;;;6.80;99.90;;;;;;5034882;28;20187;-85
2023/12/12 10:04:44;;;;;;;0.70;0.70;;;6.90;99.90;;;;;;5036851;28;20605;-84
2023/12/12 10:07:13;;;;;;;0.63;0.63;;;6.70;99.90;;;;;;5033855;28;20226;-84
2023/12/12 10:09:39;;;;;;;0.80;0.80;;;6.70;99.90;;;;;;5034375;28;20280;-85
2023/12/12 10:12:05;;;;;;;0.70;0.70;;;6.80;99.90;;;;;;5034042;28;20708;-85
2023/12/12 10:14:49;;;;;;;0.70;0.70;;;6.80;99.90;;;;;;5033505;28;20421;-86
2023/12/12 10:17:15;;;;;;;0.70;0.70;;;6.80;99.90;;;;;;5015608;28;20234;-88
2023/12/12 10:19:41;;;;;;;0.80;0.80;;;6.90;99.90;;;;;;5015727;28;20192;-86
2023/12/12 10:22:08;;;;;;;0.80;0.80;;;7.00;99.90;;;;;;5033999;28;20175;-86
2023/12/12 10:24:36;;;;;;;0.70;0.70;;;7.00;99.90;;;;;;5026772;28;20191;-87
2023/12/12 10:27:03;;;;;;;0.70;0.70;;;7.00;99.90;;;;;;5035031;28;20215;-85
2023/12/12 10:29:31;;;;;;;0.70;0.70;;;7.00;99.90;;;;;;5042072;28;20203;-86
2023/12/12 10:31:58;;;;;;;0.80;0.80;;;7.00;99.90;;;;;;5030349;28;20226;-85
2023/12/12 10:34:27;;;;;;;0.70;0.70;;;7.00;99.90;;;;;;5042997;28;20185;-86
2023/12/12 10:36:56;;;;;;;0.70;0.70;;;7.10;99.90;;;;;;5020678;28;20223;-88
2023/12/12 10:39:22;;;;;;;0.60;0.60;;;7.10;99.90;;;;;;5015117;28;20176;-87
2023/12/12 10:41:52;;;;;;;0.70;0.70;;;7.10;99.90;;;;;;5032114;28;20179;-86
2023/12/12 10:44:21;;;;;;;0.70;0.70;;;7.10;99.90;;;;;;5024506;28;20269;-87
2023/12/12 10:46:52;;;;;;;0.80;0.80;;;7.10;99.90;;;;;;5039079;28;20195;-86
2023/12/12 10:49:20;;;;;;;0.70;0.70;;;7.40;99.90;;;;;;5034365;28;20180;-87
2023/12/12 10:51:47;;;;;;;0.70;0.70;;;7.10;99.90;;;;;;5034666;28;20180;-86
2023/12/12 10:54:16;;;;;;;0.70;0.70;;;7.10;99.90;;;;;;5036416;28;20206;-85
2023/12/12 10:56:46;;;;;;;0.80;0.80;;;7.20;99.90;;;;;;5037374;28;20210;-87
2023/12/12 10:59:15;;;;;;;0.80;0.80;;;7.20;99.90;;;;;;5025295;28;20203;-85
2023/12/12 11:01:47;;;;;;;0.70;0.70;;;7.30;99.90;;;;;;5055691;28;20160;-87
2023/12/12 11:04:14;;;;;;;0.90;0.90;;;7.40;99.90;;;;;;5023881;28;20184;-85
2023/12/12 11:06:43;;;;;;;0.70;0.70;;;7.80;99.90;;;;;;5041665;28;20215;-87
2023/12/12 11:09:10;;;;;;;0.70;0.70;;;7.60;99.90;;;;;;5039318;28;20183;-86
2023/12/12 11:11:41;;;;;;;0.70;0.70;;;7.40;99.90;;;;;;5038355;28;20176;-85
2023/12/12 11:14:08;;;;;;;0.60;0.60;;;7.70;99.90;;;;;;5038397;28;20212;-86
2023/12/12 11:16:34;;;;;;;0.70;0.70;;;7.90;99.90;;;;;;5035590;28;20208;-87
2023/12/12 11:19:01;;;;;;;0.77;0.77;;;8.00;99.90;;;;;;5035562;28;20208;-88
2023/12/12 11:21:49;;;;;;;0.70;0.70;;;8.00;99.90;;;;;;5001649;28;20271;-89
2023/12/12 11:24:17;;;;;;;0.73;0.73;;;8.20;99.90;;;;;;5034802;28;20183;-87
2023/12/12 11:26:44;;;;;;;0.73;0.73;;;8.30;99.90;;;;;;5028965;28;20192;-87
2023/12/12 11:29:23;;;;;;;0.83;0.83;;;8.40;99.90;;;;;;5038094;28;20172;-87
2023/12/12 11:31:58;;;;;;;0.60;0.60;;;8.50;99.90;;;;;;5037216;28;20172;-88
2023/12/12 11:34:24;;;;;;;0.70;0.70;;;8.50;99.90;;;;;;5037343;28;20175;-86
2023/12/12 11:36:59;;;;;;;0.70;0.70;;;8.60;99.90;;;;;;5036393;28;20672;-87
2023/12/12 11:39:39;;;;;;;0.70;0.70;;;8.70;99.90;;;;;;5018377;28;20198;-86
2023/12/12 11:42:06;;;;;;;0.60;0.60;;;8.80;99.90;;;;;;5017199;28;20191;-86
2023/12/12 11:44:42;;;;;;;0.63;0.63;;;8.90;99.90;;;;;;5032078;28;20180;-86
2023/12/12 11:47:14;;;;;;;0.60;0.60;;;9.00;99.90;;;;;;5036961;28;20559;-88
2023/12/12 11:49:40;;;;;;;0.80;0.80;;;9.00;99.90;;;;;;5050126;28;20160;-86
2023/12/12 11:52:07;;;;;;;0.50;0.50;;;9.10;99.90;;;;;;5034208;28;20563;-87
2023/12/12 11:54:33;;;;;;;0.60;0.60;;;9.10;99.90;;;;;;5033831;28;20179;-87
2023/12/12 11:57:00;;;;;;;0.70;0.70;;;9.20;99.90;;;;;;5017558;28;20191;-87
2023/12/12 11:59:28;;;;;;;0.60;0.60;;;9.20;99.90;;;;;;5038556;28;20226;-86
2023/12/12 12:01:55;;;;;;;0.60;0.60;;;9.20;99.90;;;;;;5020817;28;20172;-87
2023/12/12 12:04:21;;;;;;;0.60;0.60;;;9.20;99.90;;;;;;5039367;28;20175;-86
2023/12/12 12:06:49;;;;;;;0.70;0.70;;;9.20;99.90;;;;;;5038573;28;20198;-87
2023/12/12 12:09:16;;;;;;;0.63;0.63;;;9.20;99.90;;;;;;5037362;28;20184;-87
2023/12/12 12:11:51;;;;;;;0.60;0.60;;;9.20;99.90;;;;;;5036751;28;20192;-85
2023/12/12 12:14:23;;;;;;;0.70;0.70;;;9.20;99.90;;;;;;5038394;28;20179;-86
2023/12/12 12:16:58;;;;;;;0.63;0.63;;;9.30;99.90;;;;;;5041776;28;20600;-85
2023/12/12 12:19:37;;;;;;;0.60;0.60;;;9.30;99.90;;;;;;5036415;28;20186;-86
2023/12/12 12:22:10;;;;;;;0.63;0.63;;;9.40;99.90;;;;;;5044553;28;20626;-85
2023/12/12 12:24:44;;;;;;;0.60;0.60;;;9.40;99.90;;;;;;5020225;28;20866;-86
2023/12/12 12:27:10;;;;;;;0.63;0.63;;;9.50;99.90;;;;;;5019118;28;20262;-86
2023/12/12 12:29:36;;;;;;;0.70;0.70;;;9.50;99.90;;;;;;5038386;28;20283;-85
2023/12/12 12:32:17;;;;;;;0.60;0.60;;;9.50;99.90;;;;;;5036832;28;20739;-85
2023/12/12 12:34:43;;;;;;;0.60;0.60;;;9.40;99.90;;;;;;5041154;28;20191;-88
2023/12/12 12:37:32;;;;;;;0.57;0.57;;;9.40;99.90;;;;;;5021509;28;20266;-86
2023/12/12 12:39:57;;;;;;;0.60;0.60;;;9.40;99.90;;;;;;5039654;28;20239;-86
2023/12/12 12:42:37;;;;;;;0.53;0.53;;;9.50;99.90;;;;;;5037926;28;20211;-85
2023/12/12 12:45:04;;;;;;;0.60;0.60;;;9.50;99.90;;;;;;5037078;28;20175;-84
2023/12/12 12:47:30;;;;;;;0.70;0.70;;;9.50;99.90;;;;;;5039404;28;20596;-85
2023/12/12 12:49:56;;;;;;;0.70;0.70;;;9.50;99.90;;;;;;5039785;28;20701;-85
2023/12/12 12:52:21;;;;;;;0.70;0.70;;;9.50;99.90;;;;;;5033833;28;20251;-85
2023/12/12 12:54:47;;;;;;;0.70;0.70;;;9.40;99.90;;;;;;5031742;28;20225;-84